Wetterdaten: aktuell Freitag, 04.09.2026 13:47
Datum Zeit Temp. A. Feuchte A. Luftdruck Regen Wind Richtung Richtung Sonnenschein Regendauer Taupunkt Windchill
04.09.2026 13:47 28,0 °C 51 % 1013,3 hPa 0,0 mm 15,7 km/h (3 Bft) NW 310 ° 4 min 0 min 16,9 °C 28,0 °C
04.09.2026 13:42 27,6 °C 53 % 1013,4 hPa 0,0 mm 22,7 km/h (4 Bft) O 95 ° 5 min 0 min 17,1 °C 27,6 °C
04.09.2026 13:37 27,3 °C 54 % 1013,4 hPa 0,0 mm 26,1 km/h (4 Bft) O-SO 105 ° 3 min 0 min 17,2 °C 27,3 °C
04.09.2026 13:32 27,3 °C 53 % 1013,4 hPa 0,0 mm 18,0 km/h (3 Bft) O-SO 110 ° 7 min 0 min 16,9 °C 27,3 °C
04.09.2026 13:27 26,6 °C 55 % 1013,5 hPa 0,0 mm 18,1 km/h (3 Bft) NO 50 ° 3 min 0 min 16,8 °C 26,6 °C
04.09.2026 13:22 26,6 °C 55 % 1013,5 hPa 0,0 mm 18,0 km/h (3 Bft) W-NW 295 ° 7 min 0 min 16,8 °C 26,6 °C
04.09.2026 13:17 26,6 °C 55 % 1014,6 hPa 0,0 mm 28,2 km/h (5 Bft) O-SO 115 ° 6 min 0 min 16,8 °C 26,6 °C
04.09.2026 13:12 26,0 °C 57 % 1014,7 hPa 0,0 mm 13,3 km/h (3 Bft) W-SW 245 ° 2 min 0 min 16,8 °C 26,0 °C
04.09.2026 13:07 26,1 °C 57 % 1014,7 hPa 0,0 mm 20,9 km/h (4 Bft) O-SO 110 ° 5 min 0 min 16,9 °C 26,1 °C
04.09.2026 13:02 26,1 °C 58 % 1014,7 hPa 0,0 mm 20,4 km/h (4 Bft) O 85 ° 5 min 0 min 17,2 °C 26,1 °C
04.09.2026 12:57 25,8 °C 58 % 1014,7 hPa 0,0 mm 4,9 km/h (1 Bft) SO 125 ° 5 min 0 min 16,9 °C 25,8 °C
04.09.2026 12:52 25,8 °C 61 % 1014,7 hPa 0,0 mm 33,5 km/h (5 Bft) O-SO 110 ° 6 min 0 min 17,7 °C 25,8 °C
04.09.2026 12:47 26,4 °C 61 % 1014,6 hPa 0,0 mm 10,0 km/h (2 Bft) S-SO 160 ° 4 min 0 min 18,3 °C 26,4 °C
04.09.2026 12:42 26,2 °C 61 % 1014,7 hPa 0,0 mm 17,6 km/h (3 Bft) O 90 ° 6 min 0 min 18,1 °C 26,2 °C
04.09.2026 12:37 25,9 °C 62 % 1014,7 hPa 0,0 mm 10,9 km/h (2 Bft) SO 140 ° 5 min 0 min 18,0 °C 25,9 °C
04.09.2026 12:32 25,3 °C 63 % 1014,8 hPa 0,0 mm 26,0 km/h (4 Bft) S-SO 150 ° 5 min 0 min 17,7 °C 25,3 °C
04.09.2026 12:27 25,8 °C 62 % 1014,7 hPa 0,0 mm 23,6 km/h (4 Bft) S-SO 150 ° 4 min 0 min 18,0 °C 25,8 °C
04.09.2026 12:22 25,7 °C 64 % 1014,8 hPa 0,0 mm 15,4 km/h (3 Bft) O-SO 115 ° 5 min 0 min 18,4 °C 25,7 °C
04.09.2026 12:17 25,4 °C 65 % 1015,9 hPa 0,0 mm 25,0 km/h (4 Bft) N-NO 30 ° 6 min 0 min 18,3 °C 25,4 °C
04.09.2026 12:12 25,4 °C 64 % 1015,9 hPa 0,0 mm 21,2 km/h (4 Bft) SW 235 ° 5 min 0 min 18,1 °C 25,4 °C
04.09.2026 12:07 24,9 °C 65 % 1015,9 hPa 0,0 mm 21,4 km/h (4 Bft) S-SO 155 ° 4 min 0 min 17,9 °C 24,9 °C
04.09.2026 12:02 25,5 °C 65 % 1015,8 hPa 0,0 mm 17,9 km/h (3 Bft) SO 135 ° 5 min 0 min 18,4 °C 25,5 °C
04.09.2026 11:57 25,0 °C 64 % 1015,9 hPa 0,0 mm 18,2 km/h (3 Bft) SO 135 ° 6 min 0 min 17,7 °C 25,0 °C
04.09.2026 11:52 24,9 °C 66 % 1015,9 hPa 0,0 mm 16,3 km/h (3 Bft) S 180 ° 5 min 0 min 18,1 °C 24,9 °C
04.09.2026 11:47 24,6 °C 68 % 1016,0 hPa 0,0 mm 2,5 km/h (1 Bft) S 185 ° 5 min 0 min 18,3 °C 24,6 °C
04.09.2026 11:42 23,6 °C 72 % 1016,2 hPa 0,0 mm 7,6 km/h (2 Bft) S-SW 200 ° 4 min 0 min 18,2 °C 23,6 °C
04.09.2026 11:37 24,0 °C 70 % 1016,1 hPa 0,0 mm 15,6 km/h (3 Bft) S-SO 155 ° 6 min 0 min 18,2 °C 24,0 °C
04.09.2026 11:32 23,4 °C 74 % 1016,2 hPa 0,0 mm 18,0 km/h (3 Bft) S-SO 160 ° 5 min 0 min 18,5 °C 23,4 °C
04.09.2026 11:27 22,9 °C 74 % 1016,3 hPa 0,0 mm 5,6 km/h (2 Bft) O-SO 115 ° 5 min 0 min 18,0 °C 22,9 °C
04.09.2026 11:22 22,6 °C 74 % 1016,4 hPa 0,0 mm 9,6 km/h (2 Bft) SO 125 ° 5 min 0 min 17,7 °C 22,6 °C
04.09.2026 11:17 21,9 °C 76 % 1017,5 hPa 0,0 mm 7,4 km/h (2 Bft) O-SO 120 ° 5 min 0 min 17,5 °C 21,9 °C
04.09.2026 11:12 21,6 °C 78 % 1017,6 hPa 0,0 mm 21,6 km/h (4 Bft) SO 140 ° 6 min 0 min 17,6 °C 21,6 °C
04.09.2026 11:07 21,0 °C 79 % 1017,7 hPa 0,0 mm 11,6 km/h (2 Bft) S 180 ° 5 min 0 min 17,2 °C 21,0 °C
04.09.2026 11:02 21,0 °C 80 % 1017,7 hPa 0,0 mm 20,8 km/h (4 Bft) SW 225 ° 5 min 0 min 17,4 °C 21,0 °C
04.09.2026 10:57 21,0 °C 80 % 1017,7 hPa 0,0 mm 20,6 km/h (4 Bft) S-SO 165 ° 5 min 0 min 17,4 °C 21,0 °C
04.09.2026 10:52 21,0 °C 81 % 1017,7 hPa 0,0 mm 18,2 km/h (3 Bft) S-SO 155 ° 5 min 0 min 17,6 °C 21,0 °C
04.09.2026 10:47 20,8 °C 80 % 1017,7 hPa 0,0 mm 22,5 km/h (4 Bft) S-SO 150 ° 4 min 0 min 17,2 °C 20,8 °C
04.09.2026 10:42 20,8 °C 80 % 1017,7 hPa 0,0 mm 12,0 km/h (2 Bft) SO 145 ° 6 min 0 min 17,2 °C 20,8 °C
04.09.2026 10:37 20,6 °C 81 % 1017,8 hPa 0,0 mm 6,5 km/h (2 Bft) S-SO 155 ° 5 min 0 min 17,2 °C 20,6 °C
04.09.2026 10:32 21,0 °C 80 % 1017,7 hPa 0,0 mm 4,7 km/h (1 Bft) SO 140 ° 6 min 0 min 17,4 °C 21,0 °C
04.09.2026 10:27 21,0 °C 80 % 1017,7 hPa 0,0 mm 3,8 km/h (1 Bft) SW 230 ° 5 min 0 min 17,4 °C 21,0 °C
04.09.2026 10:22 20,6 °C 80 % 1017,8 hPa 0,0 mm 10,3 km/h (2 Bft) SW 215 ° 4 min 0 min 17,0 °C 20,6 °C
04.09.2026 10:17 20,2 °C 83 % 1017,9 hPa 0,0 mm 6,2 km/h (2 Bft) S 185 ° 6 min 0 min 17,2 °C 20,2 °C
04.09.2026 10:12 19,9 °C 84 % 1017,9 hPa 0,0 mm 4,4 km/h (1 Bft) S-SO 155 ° 5 min 0 min 17,1 °C 19,9 °C
04.09.2026 10:07 19,6 °C 84 % 1018,0 hPa 0,0 mm 11,1 km/h (2 Bft) SO 145 ° 5 min 0 min 16,8 °C 19,6 °C
04.09.2026 10:02 19,3 °C 85 % 1018,0 hPa 0,0 mm 4,2 km/h (1 Bft) SO 145 ° 5 min 0 min 16,7 °C 19,3 °C
04.09.2026 09:57 18,9 °C 85 % 1018,1 hPa 0,0 mm 13,6 km/h (3 Bft) S-SO 155 ° 5 min 0 min 16,3 °C 18,9 °C
04.09.2026 09:52 19,2 °C 86 % 1018,0 hPa 0,0 mm 4,9 km/h (1 Bft) SO 145 ° 3 min 0 min 16,8 °C 19,2 °C
04.09.2026 09:47 19,1 °C 86 % 1018,1 hPa 0,0 mm 3,2 km/h (1 Bft) SO 130 ° 5 min 0 min 16,7 °C 19,1 °C
_ Min-Zeit 05:17 15:32 13:47 - 20:02 - - - - 15:17 05:17
Minimum _ 13,8 °C 46 % 1013,3 hPa - 0,0 km/h (0 Bft) - - - - 12,7 °C 13,8 °C
_ Max-Zeit 13:47 04:02 22:22 18:07 12:52 - - 16:42 18:07 11:32 13:47
Maximum _ 28,0 °C 97 % 1020,8 hPa 0,3 mm 33,5 km/h
O-SO (5 Bft)
- - 7 min 5 min 18,5 °C 28,0 °C
Durchschnitt _ 19,1 °C 80 % 1018,6 hPa #2,1 mm 5,8 km/h (2 Bft) S-SO - #6:29 h #0 min. 15,0 °C 19,1 °C